Time;durP1;ratioP1;P1;durP2;ratioP2;P2;SDS_P1;SDS_P2;PMS_P1;PMS_P2;Temp;Humidity;BMP_temperature;BMP_pressure;BME280_temperature;BME280_humidity;BME280_pressure;Samples;Min_cycle;Max_cycle;Signal;HPM_P1;HPM_P2
2022/07/13 00:02:17;;;;;;;5.10;3.47;;;20.60;99.90;;;;;;5063691;28;20088;-70
2022/07/13 00:04:43;;;;;;;4.95;3.30;;;20.60;99.90;;;;;;5047586;28;20087;-70
2022/07/13 00:07:08;;;;;;;3.95;3.60;;;20.60;99.90;;;;;;5063723;28;20043;-70
2022/07/13 00:09:34;;;;;;;4.03;3.60;;;20.60;99.90;;;;;;5047215;28;20053;-70
2022/07/13 00:12:00;;;;;;;3.65;3.33;;;20.70;99.90;;;;;;5048291;28;20048;-70
2022/07/13 00:14:25;;;;;;;5.20;4.07;;;20.70;99.90;;;;;;5031927;28;20049;-70
2022/07/13 00:16:51;;;;;;;4.65;3.97;;;20.70;99.90;;;;;;5066423;28;20055;-70
2022/07/13 00:19:17;;;;;;;4.40;4.00;;;20.80;99.90;;;;;;5046964;28;20093;-70
2022/07/13 00:21:42;;;;;;;4.80;4.30;;;20.80;99.90;;;;;;5047092;28;20068;-70
2022/07/13 00:24:08;;;;;;;5.93;5.20;;;20.80;99.90;;;;;;5047078;28;20041;-70
2022/07/13 00:26:34;;;;;;;5.45;4.75;;;20.80;99.90;;;;;;5062455;28;20044;-71
2022/07/13 00:28:59;;;;;;;7.53;5.90;;;20.80;99.90;;;;;;5052355;28;20085;-70
2022/07/13 00:31:25;;;;;;;6.78;4.82;;;20.80;99.90;;;;;;5048326;28;20486;-71
2022/07/13 00:33:51;;;;;;;9.40;5.32;;;20.80;99.90;;;;;;5042363;28;20161;-70
2022/07/13 00:36:16;;;;;;;6.88;5.78;;;20.80;99.90;;;;;;5050963;28;20052;-70
2022/07/13 00:38:42;;;;;;;6.18;5.15;;;20.80;99.90;;;;;;5047721;28;20116;-70
2022/07/13 00:41:08;;;;;;;6.00;5.40;;;20.80;99.90;;;;;;5064728;28;20041;-70
2022/07/13 00:43:33;;;;;;;6.75;5.38;;;20.80;99.90;;;;;;5081528;28;20044;-70
2022/07/13 00:45:59;;;;;;;7.10;6.45;;;20.80;99.90;;;;;;5068231;28;20071;-70
2022/07/13 00:48:26;;;;;;;7.55;6.18;;;20.80;99.90;;;;;;5060674;28;20033;-70
2022/07/13 00:50:52;;;;;;;6.95;6.35;;;20.70;99.90;;;;;;5047918;28;20057;-70
2022/07/13 00:53:18;;;;;;;7.57;5.88;;;20.80;99.90;;;;;;5057085;28;20045;-70
2022/07/13 00:55:45;;;;;;;7.82;5.97;;;20.80;99.90;;;;;;5051356;28;20064;-70
2022/07/13 00:58:11;;;;;;;9.07;6.78;;;20.70;99.90;;;;;;5054931;28;20051;-70
2022/07/13 01:00:37;;;;;;;7.20;6.50;;;20.70;99.90;;;;;;5062034;28;20469;-70
2022/07/13 01:03:03;;;;;;;7.00;6.35;;;20.70;99.90;;;;;;5019165;28;20441;-70
2022/07/13 01:05:30;;;;;;;8.73;7.10;;;20.70;99.90;;;;;;5025169;28;20452;-70
2022/07/13 01:07:56;;;;;;;8.82;7.22;;;20.70;99.90;;;;;;5052852;28;20049;-70
2022/07/13 01:10:22;;;;;;;9.38;7.47;;;20.70;99.90;;;;;;5054202;28;20432;-70
2022/07/13 01:12:47;;;;;;;13.13;8.05;;;20.70;99.90;;;;;;5057572;28;20097;-70
2022/07/13 01:15:13;;;;;;;8.55;7.32;;;20.70;99.90;;;;;;5055627;28;20108;-70
2022/07/13 01:17:39;;;;;;;8.10;7.10;;;20.70;99.90;;;;;;5052694;28;20151;-71
2022/07/13 01:20:07;;;;;;;9.82;8.27;;;20.70;99.90;;;;;;5075160;28;20048;-70
2022/07/13 01:22:43;;;;;;;9.45;7.68;;;20.70;99.90;;;;;;5046311;28;20054;-70
2022/07/13 01:25:09;;;;;;;11.10;8.00;;;20.60;99.90;;;;;;5054018;28;20406;-70
2022/07/13 01:27:38;;;;;;;9.70;8.82;;;20.70;99.90;;;;;;5045952;28;20048;-70
2022/07/13 01:30:05;;;;;;;10.73;8.20;;;20.70;99.90;;;;;;5050199;28;20056;-70
2022/07/13 01:32:51;;;;;;;9.00;8.20;;;20.70;99.90;;;;;;5044979;28;20052;-70
2022/07/13 01:35:18;;;;;;;8.60;7.63;;;20.70;99.90;;;;;;5049455;28;20455;-70
2022/07/13 01:37:45;;;;;;;11.02;9.20;;;20.70;99.90;;;;;;5048360;28;20049;-70
2022/07/13 01:40:12;;;;;;;9.90;8.30;;;20.80;99.90;;;;;;5055330;28;20048;-70
2022/07/13 01:42:43;;;;;;;10.18;8.65;;;20.80;99.90;;;;;;5064903;28;20044;-70
2022/07/13 01:45:09;;;;;;;9.90;8.93;;;20.80;99.90;;;;;;5051234;28;20056;-70
2022/07/13 01:47:39;;;;;;;10.48;9.15;;;20.80;99.90;;;;;;5045226;28;20045;-70
2022/07/13 01:50:07;;;;;;;12.07;10.50;;;20.80;99.90;;;;;;5045656;28;20052;-70
2022/07/13 01:52:33;;;;;;;10.25;9.25;;;20.70;99.90;;;;;;5063031;28;20071;-70
2022/07/13 01:54:59;;;;;;;9.43;8.43;;;20.70;99.90;;;;;;5061541;28;20037;-70
2022/07/13 01:57:25;;;;;;;11.65;10.20;;;20.70;99.90;;;;;;5046506;28;20055;-70
2022/07/13 01:59:51;;;;;;;12.07;10.10;;;20.70;99.90;;;;;;5054792;28;20053;-70
2022/07/13 02:02:17;;;;;;;10.57;9.27;;;20.70;99.90;;;;;;5070456;28;20094;-70
2022/07/13 02:04:43;;;;;;;10.32;9.30;;;20.70;99.90;;;;;;5067290;28;20452;-70
2022/07/13 02:07:09;;;;;;;10.88;9.40;;;20.60;99.90;;;;;;5029502;28;20048;-71
2022/07/13 02:09:35;;;;;;;11.95;10.55;;;20.60;99.90;;;;;;5045673;28;20041;-70
2022/07/13 02:12:00;;;;;;;10.18;9.27;;;20.60;99.90;;;;;;5058825;28;20425;-70
2022/07/13 02:14:26;;;;;;;12.02;9.98;;;20.60;99.90;;;;;;5058778;28;20137;-70
2022/07/13 02:16:52;;;;;;;10.23;9.18;;;20.60;99.90;;;;;;5070113;28;20057;-70
2022/07/13 02:19:18;;;;;;;12.60;9.90;;;20.60;99.90;;;;;;5073431;28;20108;-70
2022/07/13 02:21:46;;;;;;;10.60;9.55;;;20.60;99.90;;;;;;5068841;28;20052;-70
2022/07/13 02:24:11;;;;;;;12.10;10.05;;;20.60;99.90;;;;;;5067038;28;20048;-70
2022/07/13 02:26:37;;;;;;;13.00;10.30;;;20.60;99.90;;;;;;5047924;28;20052;-71
2022/07/13 02:29:05;;;;;;;12.07;9.30;;;20.60;99.90;;;;;;5047234;28;20053;-70
2022/07/13 02:31:33;;;;;;;11.98;10.45;;;20.60;99.90;;;;;;5052639;28;20079;-70
2022/07/13 02:33:59;;;;;;;11.02;9.25;;;20.60;99.90;;;;;;5055722;28;20136;-70
2022/07/13 02:36:25;;;;;;;10.40;9.30;;;20.50;99.90;;;;;;5046877;28;20432;-70
2022/07/13 02:38:51;;;;;;;10.57;9.48;;;20.50;99.90;;;;;;5039694;28;20113;-70
2022/07/13 02:41:16;;;;;;;15.05;9.45;;;20.50;99.90;;;;;;5042484;28;20045;-70
2022/07/13 02:43:42;;;;;;;10.27;9.15;;;20.50;99.90;;;;;;5070734;28;20492;-70
2022/07/13 02:46:08;;;;;;;10.02;9.13;;;20.50;99.90;;;;;;5044449;28;20053;-70
2022/07/13 02:48:33;;;;;;;11.45;9.15;;;20.40;99.90;;;;;;5057035;28;20049;-71
2022/07/13 02:50:59;;;;;;;11.45;10.25;;;20.50;99.90;;;;;;5064070;28;20044;-70
2022/07/13 02:53:25;;;;;;;11.65;10.43;;;20.50;99.90;;;;;;5066774;28;20049;-70
2022/07/13 02:55:51;;;;;;;12.55;9.82;;;20.50;99.90;;;;;;5057877;28;20284;-71
2022/07/13 02:58:16;;;;;;;12.30;10.48;;;20.50;99.90;;;;;;5056814;28;20103;-70
2022/07/13 03:00:42;;;;;;;11.40;10.20;;;20.40;99.90;;;;;;5057993;28;20075;-70
2022/07/13 03:03:08;;;;;;;9.77;8.77;;;20.40;99.90;;;;;;5063070;28;20048;-71
2022/07/13 03:05:33;;;;;;;11.57;10.23;;;20.40;99.90;;;;;;5042789;28;20067;-70
2022/07/13 03:07:59;;;;;;;11.20;9.63;;;20.40;99.90;;;;;;5050515;28;20390;-70
2022/07/13 03:10:25;;;;;;;10.80;9.48;;;20.40;99.90;;;;;;5046983;28;20045;-70
2022/07/13 03:12:50;;;;;;;11.93;9.35;;;20.40;99.90;;;;;;5035100;28;20041;-70
2022/07/13 03:15:16;;;;;;;10.20;9.20;;;20.30;99.90;;;;;;5064237;28;20045;-70
2022/07/13 03:17:42;;;;;;;11.27;9.57;;;20.30;99.90;;;;;;5052849;28;20079;-70
2022/07/13 03:20:09;;;;;;;10.95;9.85;;;20.20;99.90;;;;;;5056990;28;20079;-70
2022/07/13 03:22:35;;;;;;;11.30;9.60;;;20.20;99.90;;;;;;5059150;28;20124;-70
2022/07/13 03:25:02;;;;;;;12.05;9.63;;;20.20;99.90;;;;;;5048748;28;20068;-70
2022/07/13 03:27:28;;;;;;;12.35;9.65;;;20.10;99.90;;;;;;5046212;28;20064;-70
2022/07/13 03:29:53;;;;;;;11.15;9.90;;;20.10;99.90;;;;;;5055421;28;20099;-70
2022/07/13 03:32:19;;;;;;;10.05;8.73;;;20.10;99.90;;;;;;5049384;28;20516;-70
2022/07/13 03:34:45;;;;;;;10.52;9.32;;;20.10;99.90;;;;;;5050007;28;20049;-70
2022/07/13 03:37:10;;;;;;;10.93;9.82;;;20.10;99.90;;;;;;5056016;28;20040;-70
2022/07/13 03:39:37;;;;;;;11.07;8.32;;;20.10;99.90;;;;;;5062643;28;20043;-70
2022/07/13 03:42:03;;;;;;;11.48;9.45;;;20.10;99.90;;;;;;5034423;28;20053;-71
2022/07/13 03:44:28;;;;;;;9.75;8.50;;;20.10;99.90;;;;;;5041545;28;20084;-70
2022/07/13 03:46:54;;;;;;;9.13;8.23;;;20.10;99.90;;;;;;5048978;28;20072;-71
2022/07/13 03:49:20;;;;;;;9.38;7.97;;;20.10;99.90;;;;;;5054302;28;20049;-70
2022/07/13 03:51:46;;;;;;;10.90;8.57;;;20.10;99.90;;;;;;5051941;28;20076;-70
2022/07/13 03:54:12;;;;;;;10.55;8.27;;;20.10;99.90;;;;;;5061203;28;20059;-70
2022/07/13 03:56:39;;;;;;;10.93;8.05;;;20.20;99.90;;;;;;5048365;28;20045;-70
2022/07/13 03:59:05;;;;;;;9.93;8.15;;;20.20;99.90;;;;;;5056290;28;20171;-70
2022/07/13 04:01:31;;;;;;;8.80;7.45;;;20.20;99.90;;;;;;5066049;28;20037;-70
2022/07/13 04:03:58;;;;;;;8.30;7.30;;;20.20;99.90;;;;;;5063683;28;20055;-70
2022/07/13 04:06:25;;;;;;;8.90;8.00;;;20.20;99.90;;;;;;5057486;28;20088;-70
2022/07/13 04:08:51;;;;;;;8.70;7.72;;;20.20;99.90;;;;;;5034682;28;20048;-71
2022/07/13 04:11:17;;;;;;;9.25;8.30;;;20.20;99.90;;;;;;5052389;28;20068;-71
2022/07/13 04:13:43;;;;;;;11.02;8.25;;;20.20;99.90;;;;;;5045490;28;20044;-70
2022/07/13 04:16:09;;;;;;;9.38;8.20;;;20.20;99.90;;;;;;5063686;28;20178;-71
2022/07/13 04:18:35;;;;;;;10.48;8.60;;;20.20;99.90;;;;;;5046802;28;20048;-70
2022/07/13 04:21:01;;;;;;;11.00;8.27;;;20.20;99.90;;;;;;5050983;28;20045;-70
2022/07/13 04:23:29;;;;;;;13.30;8.88;;;20.30;99.90;;;;;;5046379;28;20053;-70
2022/07/13 04:25:56;;;;;;;9.02;7.10;;;20.40;99.90;;;;;;5052025;28;20081;-71
2022/07/13 04:28:23;;;;;;;8.60;7.70;;;20.40;99.90;;;;;;5045033;28;20126;-71
2022/07/13 04:30:49;;;;;;;9.10;8.20;;;20.30;99.90;;;;;;5062123;28;20137;-71
2022/07/13 04:33:15;;;;;;;9.48;8.25;;;20.30;99.90;;;;;;5010654;28;20398;-70
2022/07/13 04:35:41;;;;;;;8.65;7.82;;;20.30;99.90;;;;;;5045086;28;20045;-70
2022/07/13 04:38:07;;;;;;;10.55;8.80;;;20.30;99.90;;;;;;5025582;28;20547;-69
2022/07/13 04:40:32;;;;;;;10.95;8.10;;;20.30;99.90;;;;;;5048206;28;20061;-69
2022/07/13 04:42:58;;;;;;;9.50;8.40;;;20.30;99.90;;;;;;5032042;28;20057;-74
2022/07/13 04:45:23;;;;;;;9.75;7.95;;;20.30;99.90;;;;;;5055773;28;20101;-70
2022/07/13 04:47:49;;;;;;;10.13;8.55;;;20.30;99.90;;;;;;5053099;28;20053;-69
2022/07/13 04:50:15;;;;;;;9.80;8.57;;;20.30;99.90;;;;;;5077141;28;20403;-69
2022/07/13 04:52:41;;;;;;;9.57;7.57;;;20.30;99.90;;;;;;5070112;28;20563;-69
2022/07/13 04:55:07;;;;;;;9.40;8.32;;;20.30;99.90;;;;;;5031292;28;20044;-68
2022/07/13 04:57:33;;;;;;;9.75;8.20;;;20.30;99.90;;;;;;5039009;28;20033;-67
2022/07/13 04:59:59;;;;;;;10.20;8.00;;;20.30;99.90;;;;;;5031297;28;20081;-69
2022/07/13 05:02:25;;;;;;;11.20;8.65;;;20.30;99.90;;;;;;5058682;28;20041;-73
2022/07/13 05:04:50;;;;;;;10.38;8.80;;;20.30;99.90;;;;;;5049103;28;20048;-73
2022/07/13 05:07:16;;;;;;;10.13;8.50;;;20.40;99.90;;;;;;5034104;28;20045;-72
2022/07/13 05:09:42;;;;;;;10.93;8.45;;;20.40;99.90;;;;;;5066671;28;20109;-72
2022/07/13 05:12:08;;;;;;;11.48;9.63;;;20.40;99.90;;;;;;5066642;28;20048;-72
2022/07/13 05:14:35;;;;;;;11.75;8.98;;;20.40;99.90;;;;;;5080487;28;20044;-72
2022/07/13 05:17:01;;;;;;;11.93;9.43;;;20.40;99.90;;;;;;5065563;28;20381;-73
2022/07/13 05:19:27;;;;;;;9.77;8.77;;;20.40;99.90;;;;;;5066823;28;20059;-72
2022/07/13 05:21:53;;;;;;;10.38;8.70;;;20.40;99.90;;;;;;5066503;28;20064;-71
2022/07/13 05:24:19;;;;;;;11.75;9.25;;;20.40;99.90;;;;;;5067047;28;20126;-71
2022/07/13 05:26:44;;;;;;;11.07;9.73;;;20.40;99.90;;;;;;5084288;28;20122;-70
2022/07/13 05:29:10;;;;;;;9.90;8.23;;;20.40;99.90;;;;;;5066228;28;20059;-72
2022/07/13 05:31:36;;;;;;;10.45;8.80;;;20.40;99.90;;;;;;5064392;28;20055;-72
2022/07/13 05:34:02;;;;;;;10.63;9.27;;;20.40;99.90;;;;;;5082256;28;20047;-72
2022/07/13 05:36:27;;;;;;;9.38;7.47;;;20.50;99.90;;;;;;5064234;28;20131;-72
2022/07/13 05:38:53;;;;;;;11.15;8.60;;;20.50;99.90;;;;;;5063882;28;20044;-72
2022/07/13 05:41:19;;;;;;;9.13;8.13;;;20.50;99.90;;;;;;5064518;28;20131;-73
2022/07/13 05:43:45;;;;;;;8.55;7.53;;;20.60;99.90;;;;;;5083120;28;20048;-71
2022/07/13 05:46:11;;;;;;;9.48;7.97;;;20.60;99.90;;;;;;5083401;28;20044;-71
2022/07/13 05:48:37;;;;;;;10.65;7.90;;;20.60;99.90;;;;;;5063031;28;20037;-71
2022/07/13 05:51:03;;;;;;;8.50;7.60;;;20.70;99.90;;;;;;5064586;28;20044;-71
2022/07/13 05:53:28;;;;;;;9.25;7.45;;;20.70;99.90;;;;;;5066704;28;20118;-73
2022/07/13 05:55:54;;;;;;;9.57;7.00;;;20.80;99.90;;;;;;5044341;28;20504;-70
2022/07/13 05:58:21;;;;;;;7.68;6.93;;;20.80;99.90;;;;;;5049033;28;20127;-70
2022/07/13 06:00:47;;;;;;;8.10;6.85;;;20.90;99.90;;;;;;5015698;28;20060;-70
2022/07/13 06:03:12;;;;;;;7.70;6.38;;;21.00;99.90;;;;;;5027267;28;20057;-70
2022/07/13 06:05:39;;;;;;;9.88;7.15;;;21.00;99.90;;;;;;5044275;28;20489;-70
2022/07/13 06:08:04;;;;;;;8.57;6.18;;;21.00;99.90;;;;;;5022674;28;20060;-70
2022/07/13 06:10:30;;;;;;;7.97;7.13;;;21.10;99.90;;;;;;5062744;28;20177;-73
2022/07/13 06:12:56;;;;;;;7.25;6.55;;;21.20;99.90;;;;;;5058109;28;20041;-73
2022/07/13 06:15:22;;;;;;;8.25;6.50;;;21.30;99.90;;;;;;5063831;28;20064;-73
2022/07/13 06:17:48;;;;;;;8.88;6.38;;;21.30;99.90;;;;;;5072393;28;20037;-73
2022/07/13 06:20:13;;;;;;;7.90;6.45;;;21.40;99.90;;;;;;5061192;28;20057;-72
2022/07/13 06:22:39;;;;;;;13.55;6.75;;;21.40;99.90;;;;;;5076009;28;20037;-72
2022/07/13 06:25:06;;;;;;;9.75;6.00;;;21.50;99.90;;;;;;5048082;28;20048;-73
2022/07/13 06:27:31;;;;;;;7.63;5.97;;;21.60;99.90;;;;;;5061814;28;20059;-73
2022/07/13 06:29:57;;;;;;;7.50;5.68;;;21.60;99.90;;;;;;5050331;28;20128;-72
2022/07/13 06:32:23;;;;;;;5.90;5.20;;;21.60;99.90;;;;;;5076061;28;20076;-73
2022/07/13 06:34:48;;;;;;;7.03;6.22;;;21.60;99.90;;;;;;5060538;28;20114;-72
2022/07/13 06:37:14;;;;;;;9.82;6.95;;;21.60;99.90;;;;;;5046030;28;20059;-72
2022/07/13 06:39:40;;;;;;;7.18;6.40;;;21.60;99.90;;;;;;5041324;28;20058;-72
2022/07/13 06:42:05;;;;;;;8.27;6.70;;;21.70;99.90;;;;;;5067708;28;20044;-71
2022/07/13 06:44:31;;;;;;;8.10;6.38;;;21.70;99.90;;;;;;5078628;28;20036;-72
2022/07/13 06:47:00;;;;;;;7.63;5.88;;;21.70;99.90;;;;;;5065554;28;20078;-71
2022/07/13 06:49:29;;;;;;;9.63;6.23;;;21.80;99.90;;;;;;5057677;28;20123;-72
2022/07/13 06:51:57;;;;;;;8.15;5.97;;;21.90;99.90;;;;;;5065400;28;20278;-72
2022/07/13 06:54:23;;;;;;;7.70;5.85;;;21.90;99.90;;;;;;5058807;28;20068;-72
2022/07/13 06:56:49;;;;;;;8.52;5.80;;;22.10;99.90;;;;;;5046061;28;20052;-72
2022/07/13 06:59:14;;;;;;;9.13;6.55;;;22.20;99.90;;;;;;5061355;28;20696;-69
2022/07/13 07:01:40;;;;;;;6.82;6.07;;;22.30;99.90;;;;;;5062031;28;20572;-65
2022/07/13 07:04:06;;;;;;;6.75;6.07;;;22.40;99.90;;;;;;5061047;28;20059;-65
2022/07/13 07:06:31;;;;;;;8.35;6.05;;;22.50;99.90;;;;;;5054178;28;20093;-70
2022/07/13 07:08:58;;;;;;;9.32;6.22;;;22.60;99.90;;;;;;5085564;28;20062;-65
2022/07/13 07:11:24;;;;;;;11.07;7.40;;;22.60;99.90;;;;;;5082175;28;20045;-65
2022/07/13 07:13:50;;;;;;;9.40;6.03;;;22.70;99.90;;;;;;5067422;28;20051;-66
2022/07/13 07:16:16;;;;;;;10.32;7.53;;;22.70;99.90;;;;;;5079978;28;20460;-65
2022/07/13 07:18:41;;;;;;;9.43;6.57;;;22.70;99.90;;;;;;5088784;28;20119;-65
2022/07/13 07:21:07;;;;;;;9.15;7.07;;;22.70;99.90;;;;;;5079446;28;20075;-65
2022/07/13 07:23:33;;;;;;;10.98;7.20;;;22.80;99.90;;;;;;5090292;28;20131;-65
2022/07/13 07:25:59;;;;;;;9.93;7.82;;;23.10;99.90;;;;;;5077562;28;20056;-65
2022/07/13 07:28:24;;;;;;;11.13;7.38;;;23.20;99.90;;;;;;5084618;28;20068;-65
2022/07/13 07:30:51;;;;;;;12.38;7.70;;;23.20;99.90;;;;;;5070161;28;20052;-65
2022/07/13 07:33:17;;;;;;;9.05;7.43;;;23.10;99.90;;;;;;5079543;28;20052;-65
2022/07/13 07:35:43;;;;;;;9.88;6.88;;;23.10;99.90;;;;;;5068754;28;20095;-65
2022/07/13 07:38:08;;;;;;;9.07;8.10;;;23.00;99.90;;;;;;5078196;28;20208;-65
2022/07/13 07:40:34;;;;;;;11.20;8.63;;;23.00;99.90;;;;;;5064286;28;20048;-65
2022/07/13 07:43:00;;;;;;;9.70;7.68;;;22.90;99.90;;;;;;5075779;28;20064;-65
2022/07/13 07:45:25;;;;;;;13.00;8.30;;;22.90;99.90;;;;;;5068841;28;20108;-65
2022/07/13 07:47:51;;;;;;;9.35;7.55;;;23.00;99.90;;;;;;5077221;28;20097;-65
2022/07/13 07:50:17;;;;;;;10.93;7.50;;;23.10;99.90;;;;;;5066592;28;20051;-66
2022/07/13 07:52:42;;;;;;;10.80;7.25;;;23.10;99.90;;;;;;5057071;28;20060;-65
2022/07/13 07:55:08;;;;;;;11.05;7.70;;;23.10;99.90;;;;;;5078781;28;20063;-65
2022/07/13 07:57:47;;;;;;;8.45;6.40;;;23.20;99.90;;;;;;5067092;28;20059;-65
2022/07/13 08:00:14;;;;;;;11.52;6.82;;;23.20;99.90;;;;;;5057634;28;20049;-65
2022/07/13 08:02:40;;;;;;;7.85;6.20;;;23.20;99.90;;;;;;5050932;28;20075;-65
2022/07/13 08:05:07;;;;;;;9.77;6.60;;;23.30;99.90;;;;;;5080612;28;20164;-65
2022/07/13 08:07:34;;;;;;;9.05;6.47;;;23.30;99.90;;;;;;5059284;28;20113;-65
2022/07/13 08:10:00;;;;;;;10.80;7.22;;;23.30;99.90;;;;;;5059327;28;20381;-65
2022/07/13 08:12:25;;;;;;;11.23;7.45;;;23.30;99.90;;;;;;5050230;28;20055;-65
2022/07/13 08:14:51;;;;;;;10.73;8.02;;;23.50;99.90;;;;;;5077579;28;20052;-66
2022/07/13 08:17:16;;;;;;;9.68;7.03;;;23.60;99.90;;;;;;5050118;28;20110;-65
2022/07/13 08:19:42;;;;;;;10.48;7.10;;;23.60;99.90;;;;;;5059842;28;20067;-65
2022/07/13 08:22:08;;;;;;;12.05;8.77;;;23.50;99.90;;;;;;5066705;28;20064;-65
2022/07/13 08:24:34;;;;;;;8.45;7.60;;;23.50;99.90;;;;;;5077735;28;20049;-65
2022/07/13 08:27:01;;;;;;;8.93;7.13;;;23.60;99.90;;;;;;5068819;28;20079;-65
2022/07/13 08:29:26;;;;;;;8.52;7.38;;;23.60;99.90;;;;;;5080188;28;20419;-65
2022/07/13 08:31:52;;;;;;;10.60;7.75;;;23.60;99.90;;;;;;5061852;28;20052;-67
2022/07/13 08:39:47;;;;;;;10.27;6.85;;;23.80;99.90;;;;;;5059839;28;20075;-67
2022/07/13 08:42:13;;;;;;;10.65;7.85;;;23.80;99.90;;;;;;5065366;28;20052;-67
2022/07/13 08:44:39;;;;;;;13.48;8.07;;;23.90;99.90;;;;;;5060954;28;20141;-68
2022/07/13 08:47:09;;;;;;;10.02;8.38;;;23.90;99.90;;;;;;5063770;28;20040;-67
2022/07/13 08:49:36;;;;;;;11.63;7.57;;;24.00;99.90;;;;;;5081258;28;20123;-67
2022/07/13 08:52:02;;;;;;;8.55;7.35;;;24.00;99.90;;;;;;5064903;28;20048;-67
2022/07/13 08:54:29;;;;;;;9.52;7.63;;;24.10;99.90;;;;;;5062798;28;20060;-67
2022/07/13 08:56:55;;;;;;;8.82;7.43;;;24.10;99.90;;;;;;5082765;28;20053;-67
2022/07/13 08:59:21;;;;;;;9.88;6.50;;;24.00;99.90;;;;;;5057042;28;20089;-67
2022/07/13 09:01:49;;;;;;;9.20;7.35;;;24.10;99.90;;;;;;5062539;28;20048;-67
2022/07/13 09:04:14;;;;;;;13.50;7.45;;;24.10;99.90;;;;;;5063598;28;20145;-67
2022/07/13 09:06:48;;;;;;;10.48;7.88;;;24.20;99.90;;;;;;5061722;28;20047;-67
2022/07/13 09:09:44;;;;;;;10.48;7.95;;;24.20;99.90;;;;;;5063743;28;20202;-67
2022/07/13 09:12:18;;;;;;;10.75;6.82;;;24.30;99.90;;;;;;5007882;28;20113;-67
2022/07/13 09:14:56;;;;;;;9.73;7.00;;;24.40;99.90;;;;;;5018261;28;20045;-67
2022/07/13 09:17:46;;;;;;;11.65;7.85;;;24.40;99.90;;;;;;4996557;28;20054;-67
2022/07/13 09:20:15;;;;;;;8.50;6.47;;;24.50;99.90;;;;;;5015711;28;20064;-67
2022/07/13 09:22:49;;;;;;;8.45;6.40;;;24.60;99.90;;;;;;5022524;28;20076;-68
2022/07/13 09:25:37;;;;;;;10.07;7.07;;;24.70;99.90;;;;;;5046402;28;20052;-67
2022/07/13 09:28:09;;;;;;;10.63;7.18;;;24.90;99.90;;;;;;5041974;28;20057;-67
2022/07/13 09:30:40;;;;;;;8.60;6.28;;;24.80;99.90;;;;;;5029688;28;20053;-68
2022/07/13 09:33:06;;;;;;;9.20;6.50;;;24.80;99.90;;;;;;5047962;28;20049;-67
2022/07/13 09:35:49;;;;;;;10.27;8.07;;;24.90;99.90;;;;;;5040276;28;20057;-67
2022/07/13 09:38:36;;;;;;;15.70;7.40;;;24.90;99.90;;;;;;5027278;28;20044;-67
2022/07/13 09:41:18;;;;;;;9.90;7.50;;;25.00;99.90;;;;;;5028086;28;20045;-67
2022/07/13 09:47:06;;;;;;;9.38;7.82;;;25.10;99.90;;;;;;5037606;28;20075;-67
2022/07/13 09:49:43;;;;;;;11.00;7.72;;;25.10;99.90;;;;;;5035355;28;20059;-67
2022/07/13 09:52:11;;;;;;;8.93;6.97;;;25.00;99.90;;;;;;5017779;28;20057;-68
2022/07/13 09:54:39;;;;;;;9.23;6.72;;;25.00;99.90;;;;;;5040027;28;20041;-68
2022/07/13 09:57:10;;;;;;;7.00;6.28;;;25.10;99.90;;;;;;5030585;28;20084;-68
2022/07/13 09:59:36;;;;;;;7.90;6.18;;;25.10;99.90;;;;;;5054905;28;20090;-68
2022/07/13 10:02:04;;;;;;;7.43;5.68;;;25.40;99.90;;;;;;5060205;28;20622;-68
2022/07/13 10:04:30;;;;;;;11.52;6.13;;;25.60;99.90;;;;;;5072056;28;20045;-68
2022/07/13 10:06:56;;;;;;;7.13;5.70;;;25.70;99.90;;;;;;5025528;28;20104;-69
2022/07/13 10:09:31;;;;;;;6.65;5.50;;;25.60;99.90;;;;;;5039322;28;20055;-68
2022/07/13 10:11:59;;;;;;;12.02;5.53;;;25.60;99.90;;;;;;5054330;28;20046;-68
2022/07/13 10:14:26;;;;;;;7.28;6.07;;;25.70;99.90;;;;;;5047386;28;20250;-68
2022/07/13 10:17:16;;;;;;;9.23;5.43;;;25.80;99.90;;;;;;5049051;28;20056;-68
2022/07/13 10:19:44;;;;;;;6.00;5.13;;;25.80;99.90;;;;;;5054095;28;20049;-68
2022/07/13 10:22:19;;;;;;;6.53;4.70;;;25.90;99.90;;;;;;5039342;28;20544;-68
2022/07/13 10:24:52;;;;;;;8.57;5.40;;;25.90;99.90;;;;;;5036756;28;20043;-68
2022/07/13 10:27:37;;;;;;;6.75;4.40;;;25.90;99.90;;;;;;5037776;28;20137;-68
2022/07/13 10:30:10;;;;;;;5.97;3.75;;;25.90;99.90;;;;;;5055713;28;20064;-67
2022/07/13 10:32:38;;;;;;;4.60;3.72;;;26.00;99.90;;;;;;5074084;28;20040;-67
2022/07/13 10:35:09;;;;;;;4.55;3.65;;;26.10;99.90;;;;;;5074328;28;20048;-66
2022/07/13 10:37:58;;;;;;;8.23;3.58;;;26.00;99.90;;;;;;5054941;28;20076;-67
2022/07/13 10:40:27;;;;;;;5.88;3.70;;;26.00;99.90;;;;;;5076952;28;20455;-67
2022/07/13 10:42:53;;;;;;;5.93;3.10;;;25.90;99.90;;;;;;5035165;28;20092;-67
2022/07/13 10:45:48;;;;;;;4.45;3.20;;;25.70;99.90;;;;;;5042295;28;20045;-67
2022/07/13 10:48:18;;;;;;;4.00;2.80;;;25.70;99.90;;;;;;5008402;28;20065;-67
2022/07/13 10:50:44;;;;;;;7.53;2.65;;;25.80;99.90;;;;;;5040576;28;20070;-67
2022/07/13 10:53:10;;;;;;;5.18;3.00;;;25.90;99.90;;;;;;5048605;28;20052;-67
2022/07/13 10:55:44;;;;;;;7.15;3.33;;;26.10;99.90;;;;;;5024915;28;20055;-67
2022/07/13 10:58:35;;;;;;;5.03;2.80;;;26.20;99.90;;;;;;5031482;28;20040;-66
2022/07/13 11:01:36;;;;;;;4.65;3.33;;;26.30;99.90;;;;;;5031333;28;20033;-67
2022/07/13 11:04:04;;;;;;;5.75;2.88;;;26.30;99.90;;;;;;5042657;28;20488;-67
2022/07/13 11:06:29;;;;;;;6.40;3.00;;;26.40;99.90;;;;;;5032937;28;20152;-68
2022/07/13 11:09:21;;;;;;;3.95;2.80;;;26.40;99.90;;;;;;5049011;28;20083;-68
2022/07/13 11:11:48;;;;;;;5.22;2.80;;;26.40;99.90;;;;;;5043699;28;20049;-68
2022/07/13 11:14:36;;;;;;;5.38;3.22;;;26.40;99.90;;;;;;5037928;28;20087;-68
2022/07/13 11:17:14;;;;;;;4.80;3.03;;;26.40;99.90;;;;;;5027159;28;20056;-67
2022/07/13 11:20:02;;;;;;;5.00;2.92;;;26.40;99.90;;;;;;5036905;28;20053;-68
2022/07/13 11:25:39;;;;;;;4.60;3.20;;;26.60;99.90;;;;;;5039696;28;20060;-68
2022/07/13 11:28:07;;;;;;;5.28;2.80;;;26.80;99.90;;;;;;5047089;28;20051;-68
2022/07/13 11:30:36;;;;;;;7.17;3.17;;;26.80;99.90;;;;;;5054421;28;20057;-68
2022/07/13 11:33:07;;;;;;;4.30;2.70;;;26.80;99.90;;;;;;5049001;28;20070;-68
2022/07/13 11:35:33;;;;;;;4.43;2.92;;;26.90;99.90;;;;;;5051340;28;20070;-67
2022/07/13 11:37:59;;;;;;;5.13;3.00;;;27.00;99.90;;;;;;5035487;28;20048;-68
2022/07/13 11:40:29;;;;;;;7.32;3.42;;;27.20;99.90;;;;;;5042064;28;20057;-67
2022/07/13 11:42:57;;;;;;;5.40;3.42;;;27.30;99.90;;;;;;5032918;28;20048;-68
2022/07/13 11:45:31;;;;;;;4.63;3.15;;;27.30;99.90;;;;;;5050415;28;20549;-67
2022/07/13 11:47:59;;;;;;;4.95;2.95;;;27.40;99.90;;;;;;5052649;28;20060;-68
2022/07/13 11:50:48;;;;;;;6.22;3.13;;;27.50;99.90;;;;;;5068702;28;20273;-68
2022/07/13 11:53:28;;;;;;;5.22;3.47;;;27.50;99.90;;;;;;5050003;28;20057;-68
2022/07/13 11:55:57;;;;;;;4.47;3.20;;;27.50;99.90;;;;;;5038052;28;20057;-68
2022/07/13 11:58:32;;;;;;;4.57;2.97;;;27.40;99.90;;;;;;5053529;28;20057;-68
2022/07/13 12:01:10;;;;;;;4.90;3.17;;;27.20;99.90;;;;;;5041222;28;20545;-68
2022/07/13 12:03:36;;;;;;;5.93;3.22;;;27.20;99.90;;;;;;5027665;28;20052;-68
2022/07/13 12:06:09;;;;;;;7.00;3.00;;;26.90;99.90;;;;;;5071069;28;20072;-68
2022/07/13 12:08:37;;;;;;;4.18;3.58;;;26.80;99.90;;;;;;5000510;28;20373;-68
2022/07/13 12:11:05;;;;;;;7.22;3.22;;;26.90;99.90;;;;;;5040474;28;20040;-68
2022/07/13 12:13:33;;;;;;;4.32;3.17;;;27.00;99.90;;;;;;5027002;28;20052;-68
2022/07/13 12:15:59;;;;;;;5.05;2.85;;;27.00;99.90;;;;;;5058461;28;20079;-68
2022/07/13 12:18:25;;;;;;;4.78;2.20;;;26.90;99.90;;;;;;5037045;28;20132;-68
2022/07/13 12:20:51;;;;;;;4.68;2.13;;;26.80;99.90;;;;;;5042475;28;20053;-68
2022/07/13 12:23:17;;;;;;;3.05;2.30;;;26.70;99.90;;;;;;5033102;28;20128;-68
2022/07/13 12:25:43;;;;;;;4.72;2.47;;;26.70;99.90;;;;;;5059775;28;20050;-68
2022/07/13 12:28:10;;;;;;;6.03;3.42;;;26.80;99.90;;;;;;5052174;28;20049;-68
2022/07/13 12:30:54;;;;;;;3.97;2.50;;;27.00;99.90;;;;;;5051957;28;20052;-68
2022/07/13 12:33:20;;;;;;;4.25;2.50;;;27.10;99.90;;;;;;5036840;28;20049;-68
2022/07/13 12:35:46;;;;;;;4.25;2.70;;;27.30;99.90;;;;;;5051112;28;20068;-68
2022/07/13 12:38:14;;;;;;;5.57;2.20;;;27.60;99.90;;;;;;5022496;28;20057;-68
2022/07/13 12:40:56;;;;;;;4.47;2.30;;;27.60;99.90;;;;;;5050621;28;20635;-68
2022/07/13 12:43:28;;;;;;;5.20;2.30;;;27.60;99.90;;;;;;5011933;28;20072;-68
2022/07/13 12:45:56;;;;;;;5.10;2.70;;;27.70;99.90;;;;;;5046091;28;20103;-68
2022/07/13 12:48:28;;;;;;;5.82;2.70;;;27.80;99.90;;;;;;5014442;28;20114;-68
2022/07/13 12:51:02;;;;;;;5.72;2.60;;;27.70;99.90;;;;;;5041814;28;20048;-68
2022/07/13 12:54:06;;;;;;;6.05;2.92;;;27.50;99.90;;;;;;5032685;28;20099;-68
2022/07/13 12:56:48;;;;;;;5.88;2.92;;;27.40;99.90;;;;;;4959515;28;20054;-68
2022/07/13 12:59:20;;;;;;;5.60;3.10;;;27.30;99.90;;;;;;4978638;28;20070;-68
2022/07/13 13:01:48;;;;;;;4.50;2.78;;;27.40;99.90;;;;;;4957187;28;20062;-68